Time;durP1;ratioP1;P1;durP2;ratioP2;P2;SDS_P1;SDS_P2;PMS_P1;PMS_P2;Temp;Humidity;BMP_temperature;BMP_pressure;BME280_temperature;BME280_humidity;BME280_pressure;Samples;Min_cycle;Max_cycle;Signal;HPM_P1;HPM_P2
2022/07/10 00:00:58;;;;;;;4.03;3.83;;;;;;;20.95;71.22;99153.75;5056795;28;20200;-72
2022/07/10 00:03:26;;;;;;;4.60;4.30;;;;;;;20.95;71.43;99148.34;5054714;28;20192;-72
2022/07/10 00:05:53;;;;;;;3.50;3.30;;;;;;;20.94;71.60;99148.66;5054898;28;20200;-72
2022/07/10 00:08:19;;;;;;;4.00;3.80;;;;;;;20.87;71.93;99140.78;5055681;28;20220;-72
2022/07/10 00:10:46;;;;;;;4.13;3.93;;;;;;;20.90;71.83;99142.94;5054478;28;20676;-72
2022/07/10 00:13:13;;;;;;;4.80;3.90;;;;;;;20.85;71.98;99140.22;5054492;28;20626;-72
2022/07/10 00:15:40;;;;;;;4.40;4.10;;;;;;;20.85;72.22;99134.84;5054791;28;20197;-72
2022/07/10 00:18:06;;;;;;;4.30;3.90;;;;;;;20.73;72.62;99134.28;5055280;28;20192;-72
2022/07/10 00:20:35;;;;;;;4.60;4.30;;;;;;;20.74;72.54;99137.81;5054798;28;20248;-72
2022/07/10 00:23:02;;;;;;;4.50;4.30;;;;;;;20.80;72.50;99125.91;5054649;28;20202;-72
2022/07/10 00:25:30;;;;;;;3.83;3.73;;;;;;;20.73;72.50;99125.38;5054273;28;20653;-72
2022/07/10 00:27:57;;;;;;;3.90;3.70;;;;;;;20.66;72.75;99128.34;5054468;28;20188;-72
2022/07/10 00:30:24;;;;;;;4.47;4.23;;;;;;;20.61;72.77;99122.97;5054383;28;20656;-72
2022/07/10 00:32:50;;;;;;;4.47;4.20;;;;;;;20.53;72.88;99115.41;5054451;28;20197;-71
2022/07/10 00:35:17;;;;;;;4.73;4.07;;;;;;;20.65;72.80;99115.16;5055237;28;20198;-71
2022/07/10 00:37:45;;;;;;;4.57;4.20;;;;;;;20.65;72.38;99118.63;5054345;28;20774;-72
2022/07/10 00:40:12;;;;;;;3.83;3.63;;;;;;;20.67;72.27;99121.91;5054285;28;20200;-72
2022/07/10 00:42:39;;;;;;;4.23;4.03;;;;;;;20.69;72.06;99119.72;5054568;28;20315;-72
2022/07/10 00:45:07;;;;;;;4.93;4.53;;;;;;;20.61;72.01;99117.56;5054161;28;20619;-71
2022/07/10 00:47:34;;;;;;;4.23;4.03;;;;;;;20.58;71.67;99104.59;5054170;28;20240;-72
2022/07/10 00:50:01;;;;;;;4.30;4.10;;;;;;;20.56;72.13;99114.88;5053997;28;20220;-72
2022/07/10 00:52:28;;;;;;;4.47;4.20;;;;;;;20.58;71.92;99101.91;5053689;28;20197;-72
2022/07/10 00:54:56;;;;;;;4.60;4.20;;;;;;;20.62;71.35;99097.56;5054292;28;20262;-71
2022/07/10 00:57:24;;;;;;;4.33;4.00;;;;;;;20.61;71.44;99103.28;5053914;28;20251;-72
2022/07/10 00:59:50;;;;;;;4.37;4.17;;;;;;;20.62;71.18;99099.50;5054987;28;20200;-72
2022/07/10 01:02:18;;;;;;;4.63;4.43;;;;;;;20.60;71.19;99102.44;5053448;28;20681;-73
2022/07/10 01:04:44;;;;;;;4.80;4.50;;;;;;;20.61;71.11;99095.97;5053778;28;20254;-72
2022/07/10 01:07:11;;;;;;;4.30;4.10;;;;;;;20.65;70.87;99097.03;5053763;28;20193;-72
2022/07/10 01:09:38;;;;;;;4.63;4.23;;;;;;;20.69;70.48;99087.31;5053162;28;20704;-72
2022/07/10 01:12:07;;;;;;;4.57;4.37;;;;;;;20.69;70.40;99092.72;5053261;28;20196;-72
2022/07/10 01:14:37;;;;;;;5.10;4.70;;;;;;;20.66;70.52;99092.47;5052840;28;20246;-72
2022/07/10 01:17:06;;;;;;;4.63;4.43;;;;;;;20.71;70.47;99090.59;5053595;28;20192;-72
2022/07/10 01:19:33;;;;;;;4.50;4.20;;;;;;;20.77;69.77;99091.34;5053564;28;20287;-72
2022/07/10 01:22:01;;;;;;;4.37;4.17;;;;;;;20.76;69.75;99085.16;5053183;28;20189;-72
2022/07/10 01:24:28;;;;;;;4.57;4.33;;;;;;;20.82;69.74;99091.38;5053469;28;20197;-72
2022/07/10 01:26:54;;;;;;;4.83;4.40;;;;;;;20.87;69.25;99094.88;5053676;28;20263;-72
2022/07/10 01:29:23;;;;;;;4.53;4.33;;;;;;;20.83;69.49;99096.50;5052996;28;20762;-72
2022/07/10 01:31:49;;;;;;;4.20;4.00;;;;;;;20.91;69.02;99104.09;5053858;28;20201;-72
2022/07/10 01:34:16;;;;;;;5.50;4.70;;;;;;;20.86;68.98;99082.44;5053070;28;20193;-72
2022/07/10 01:36:43;;;;;;;4.30;4.00;;;;;;;20.87;69.14;99100.28;5053141;28;20197;-72
2022/07/10 01:39:11;;;;;;;4.40;4.20;;;;;;;20.93;69.08;99099.22;5052887;28;20585;-72
2022/07/10 01:41:38;;;;;;;4.03;3.77;;;;;;;21.00;68.71;99090.84;5053355;28;20688;-73
2022/07/10 01:44:05;;;;;;;4.20;4.00;;;;;;;20.98;68.50;99095.72;5052955;28;20262;-73
2022/07/10 01:46:32;;;;;;;4.50;4.30;;;;;;;20.94;68.70;99084.63;5052731;28;20652;-73
2022/07/10 01:48:58;;;;;;;4.37;4.17;;;;;;;20.93;68.49;99088.41;5052633;28;20699;-72
2022/07/10 01:51:25;;;;;;;4.47;4.27;;;;;;;20.90;68.70;99085.44;5053888;28;20196;-72
2022/07/10 01:53:52;;;;;;;4.40;4.20;;;;;;;20.84;69.06;99075.69;5052901;28;20188;-72
2022/07/10 01:56:20;;;;;;;4.40;4.10;;;;;;;20.81;69.05;99077.06;5053405;28;20200;-73
2022/07/10 01:58:47;;;;;;;4.37;4.17;;;;;;;20.85;68.81;99066.50;5052527;28;20628;-72
2022/07/10 02:01:13;;;;;;;4.60;4.30;;;;;;;20.85;68.85;99066.50;5052860;28;20193;-73
2022/07/10 02:06:24;;;;;;;4.60;4.30;;;;;;;20.75;69.25;99055.75;5052392;28;20183;-73
2022/07/10 02:08:51;;;;;;;4.17;3.97;;;;;;;20.77;69.09;99058.97;5052415;28;20220;-72
2022/07/10 02:11:20;;;;;;;4.37;4.17;;;;;;;20.63;69.53;99052.50;5052621;28;20628;-73
2022/07/10 02:13:46;;;;;;;4.47;4.10;;;;;;;20.63;69.26;99053.34;5052266;28;20227;-73
2022/07/10 02:16:13;;;;;;;4.70;4.50;;;;;;;20.58;69.24;99064.94;5052180;28;20193;-72
2022/07/10 02:18:40;;;;;;;4.67;4.37;;;;;;;20.55;69.55;99060.06;5052011;28;20742;-73
2022/07/10 02:21:07;;;;;;;4.50;4.20;;;;;;;20.65;69.20;99059.25;5052154;28;20203;-72
2022/07/10 02:23:34;;;;;;;4.57;4.37;;;;;;;20.66;69.43;99066.28;5051977;28;20284;-72
2022/07/10 02:26:01;;;;;;;4.60;4.30;;;;;;;20.51;69.86;99058.19;5052329;28;20224;-73
2022/07/10 02:28:30;;;;;;;4.40;4.20;;;;;;;20.54;69.81;99069.25;5052461;28;20699;-72
2022/07/10 02:30:57;;;;;;;9.87;4.70;;;;;;;20.47;69.96;99070.59;5052577;28;20235;-72
2022/07/10 02:33:23;;;;;;;4.63;4.33;;;;;;;20.49;69.70;99071.13;5051988;28;20279;-72
2022/07/10 02:35:50;;;;;;;4.90;4.50;;;;;;;20.32;69.86;99071.41;5052231;28;20192;-72
2022/07/10 02:38:17;;;;;;;4.47;4.27;;;;;;;20.18;70.34;99064.91;5052230;28;20246;-72
2022/07/10 02:40:44;;;;;;;4.83;4.40;;;;;;;20.11;70.26;99069.78;5051932;28;20254;-72
2022/07/10 02:43:10;;;;;;;4.37;4.17;;;;;;;20.11;70.23;99068.97;5052704;28;20233;-72
2022/07/10 02:45:39;;;;;;;4.60;4.30;;;;;;;20.10;70.43;99064.66;5051814;28;20219;-72
2022/07/10 02:48:06;;;;;;;4.20;4.00;;;;;;;20.18;70.11;99061.44;5052151;28;20200;-72
2022/07/10 02:50:32;;;;;;;4.77;4.37;;;;;;;20.04;70.73;99063.78;5052653;28;20223;-72
2022/07/10 02:52:59;;;;;;;5.47;4.37;;;;;;;20.08;70.81;99069.44;5051811;28;20680;-72
2022/07/10 02:55:26;;;;;;;4.27;3.97;;;;;;;20.00;71.11;99073.50;5052373;28;20222;-72
2022/07/10 02:57:53;;;;;;;4.33;4.03;;;;;;;19.99;71.26;99071.88;5052288;28;20352;-72
2022/07/10 03:00:19;;;;;;;4.10;3.90;;;;;;;20.08;71.15;99074.84;5052202;28;20197;-72
2022/07/10 03:02:48;;;;;;;5.00;4.70;;;;;;;20.04;71.23;99071.06;5051666;28;20611;-72
2022/07/10 03:05:14;;;;;;;4.30;4.10;;;;;;;19.98;71.37;99075.63;5051568;28;20661;-72
2022/07/10 03:07:41;;;;;;;4.87;4.20;;;;;;;19.94;71.73;99079.94;5051571;28;20255;-72
2022/07/10 03:10:09;;;;;;;4.47;4.27;;;;;;;20.02;71.67;99081.31;5051850;28;20770;-72
2022/07/10 03:12:36;;;;;;;4.70;4.40;;;;;;;19.99;71.72;99082.66;5051924;28;20197;-72
2022/07/10 03:15:03;;;;;;;5.03;4.83;;;;;;;19.93;72.21;99077.53;5051613;28;20197;-72
2022/07/10 03:17:30;;;;;;;4.60;4.00;;;;;;;19.90;72.37;99083.44;5052368;28;20196;-72
2022/07/10 03:19:58;;;;;;;4.87;4.60;;;;;;;19.88;72.75;99072.09;5051744;28;20207;-72
2022/07/10 03:22:25;;;;;;;5.83;5.53;;;;;;;19.85;72.68;99076.16;5051520;28;20262;-72
2022/07/10 03:24:51;;;;;;;4.73;4.53;;;;;;;19.87;72.66;99081.28;5052630;28;20197;-72
2022/07/10 03:27:18;;;;;;;4.93;4.63;;;;;;;20.00;72.13;99078.06;5051775;28;20197;-72
2022/07/10 03:29:46;;;;;;;4.63;4.33;;;;;;;19.95;72.38;99076.19;5051288;28;20649;-72
2022/07/10 03:32:12;;;;;;;5.03;4.73;;;;;;;19.92;72.60;99075.88;5051723;28;20201;-72
2022/07/10 03:34:39;;;;;;;5.20;4.90;;;;;;;19.84;73.27;99074.53;5051727;28;20189;-72
2022/07/10 03:37:08;;;;;;;5.33;5.00;;;;;;;19.83;73.11;99067.53;5054294;28;20192;-72
2022/07/10 03:39:34;;;;;;;5.20;5.00;;;;;;;19.81;73.29;99058.88;5055714;28;20272;-72
2022/07/10 03:42:01;;;;;;;7.20;5.40;;;;;;;19.86;73.32;99064.28;5055189;28;20232;-72
2022/07/10 03:44:28;;;;;;;6.07;5.40;;;;;;;19.78;73.88;99061.31;5056174;28;20250;-72
2022/07/10 03:46:55;;;;;;;6.13;5.60;;;;;;;19.80;74.13;99051.06;5055352;28;20201;-72
2022/07/10 03:49:21;;;;;;;6.13;5.57;;;;;;;19.81;74.20;99055.41;5055715;28;20227;-72
2022/07/10 03:51:48;;;;;;;6.87;5.40;;;;;;;19.85;74.25;99048.41;5055112;28;20196;-72
2022/07/10 03:54:16;;;;;;;6.37;6.00;;;;;;;19.86;74.23;99050.00;5054892;28;20615;-72
2022/07/10 03:59:27;;;;;;;6.77;6.13;;;;;;;19.97;74.02;99057.84;5055638;28;20636;-72
2022/07/10 04:01:54;;;;;;;6.47;5.97;;;;;;;19.94;74.14;99057.56;5054734;28;20195;-72
2022/07/10 04:04:20;;;;;;;5.90;5.60;;;;;;;20.01;73.69;99048.16;5054931;28;20197;-72
2022/07/10 04:06:47;;;;;;;6.30;5.70;;;;;;;20.08;73.06;99056.78;5054823;28;20192;-72
2022/07/10 04:09:16;;;;;;;6.27;5.87;;;;;;;20.10;73.22;99051.97;5054832;28;20201;-72
2022/07/10 04:11:43;;;;;;;6.83;5.60;;;;;;;20.25;72.83;99059.25;5054946;28;20197;-72
2022/07/10 04:14:09;;;;;;;6.07;5.67;;;;;;;20.24;72.97;99060.34;5054796;28;20197;-72
2022/07/10 04:16:36;;;;;;;10.07;6.13;;;;;;;20.39;72.44;99063.06;5054740;28;20254;-72
2022/07/10 04:19:03;;;;;;;6.43;6.13;;;;;;;20.53;71.82;99056.03;5054623;28;20254;-72
2022/07/10 04:21:29;;;;;;;6.37;5.97;;;;;;;20.72;71.01;99054.41;5054789;28;20272;-73
2022/07/10 04:23:56;;;;;;;6.40;6.00;;;;;;;20.87;70.77;99053.56;5054706;28;20211;-73
2022/07/10 04:26:24;;;;;;;6.53;6.23;;;;;;;21.07;70.35;99056.25;5054315;28;20239;-72
2022/07/10 04:28:51;;;;;;;5.77;5.00;;;;;;;21.97;67.37;99061.28;5054501;28;20193;-71
2022/07/10 04:31:18;;;;;;;5.97;5.53;;;;;;;22.83;63.35;99073.88;5054150;28;20765;-70
2022/07/10 04:33:44;;;;;;;5.60;5.33;;;;;;;23.71;60.33;99071.56;5054181;28;20246;-70
2022/07/10 04:36:11;;;;;;;5.07;4.87;;;;;;;24.58;57.44;99078.97;5054439;28;20222;-70
2022/07/10 04:38:38;;;;;;;5.37;4.93;;;;;;;25.46;54.33;99087.78;5054032;28;20673;-70
2022/07/10 04:41:05;;;;;;;5.00;4.70;;;;;;;26.08;52.25;99095.19;5053668;28;20198;-70
2022/07/10 04:43:33;;;;;;;4.37;4.17;;;;;;;26.29;50.86;99104.50;5054865;28;20191;-70
2022/07/10 04:46:00;;;;;;;4.93;4.40;;;;;;;26.74;49.18;99108.09;5054166;28;20192;-71
2022/07/10 04:48:27;;;;;;;4.00;3.80;;;;;;;26.62;48.98;99111.38;5053795;28;20291;-71
2022/07/10 04:50:54;;;;;;;4.60;4.40;;;;;;;26.19;50.72;99117.53;5053974;28;20221;-70
2022/07/10 04:53:20;;;;;;;4.60;4.27;;;;;;;26.27;50.34;99125.00;5053637;28;20664;-70
2022/07/10 04:55:47;;;;;;;4.20;3.83;;;;;;;26.45;49.59;99115.88;5053415;28;20246;-70
2022/07/10 04:58:14;;;;;;;4.83;4.63;;;;;;;27.11;47.62;99124.84;5053897;28;20196;-70
2022/07/10 05:00:42;;;;;;;4.33;4.03;;;;;;;26.54;49.07;99114.78;5053443;28;20196;-71
2022/07/10 05:03:09;;;;;;;4.83;4.53;;;;;;;25.99;51.59;99112.53;5053602;28;20661;-70
2022/07/10 05:05:35;;;;;;;5.13;4.73;;;;;;;25.74;51.61;99110.31;5053635;28;20250;-70
2022/07/10 05:08:02;;;;;;;5.20;4.77;;;;;;;25.02;53.94;99104.63;5053409;28;20738;-71
2022/07/10 05:10:29;;;;;;;5.23;4.77;;;;;;;24.39;56.12;99095.31;5053906;28;20285;-71
2022/07/10 05:12:55;;;;;;;5.53;5.17;;;;;;;23.88;58.47;99094.41;5053247;28;20246;-71
2022/07/10 05:15:22;;;;;;;4.93;4.53;;;;;;;24.64;56.93;99103.13;5053488;28;20250;-71
2022/07/10 05:17:50;;;;;;;5.30;4.90;;;;;;;25.85;53.24;99111.72;5053467;28;20192;-71
2022/07/10 05:20:17;;;;;;;5.33;4.93;;;;;;;26.45;50.86;99124.81;5053372;28;20199;-71
2022/07/10 05:22:44;;;;;;;4.93;4.73;;;;;;;26.45;50.51;99121.31;5053031;28;20193;-70
2022/07/10 05:25:11;;;;;;;4.40;4.20;;;;;;;27.12;49.54;99125.66;5053166;28;20616;-70
2022/07/10 05:27:37;;;;;;;5.40;4.90;;;;;;;27.71;47.64;99127.84;5053276;28;20742;-71
2022/07/10 05:30:05;;;;;;;5.67;4.60;;;;;;;27.96;46.29;99135.34;5053182;28;20224;-71
2022/07/10 05:32:32;;;;;;;4.77;4.37;;;;;;;27.88;46.33;99139.69;5052542;28;20246;-71
2022/07/10 05:35:00;;;;;;;5.37;4.43;;;;;;;28.05;46.21;99128.78;5052848;28;20667;-71
2022/07/10 05:37:27;;;;;;;5.40;4.90;;;;;;;28.26;45.74;99134.44;5053541;28;20615;-71
2022/07/10 05:39:54;;;;;;;4.80;4.47;;;;;;;28.49;45.45;99133.19;5053120;28;20194;-72
2022/07/10 05:42:21;;;;;;;5.93;4.40;;;;;;;28.91;44.02;99135.91;5053096;28;20599;-71
2022/07/10 05:44:47;;;;;;;4.70;4.50;;;;;;;29.13;43.25;99137.66;5052580;28;20196;-71
2022/07/10 05:47:14;;;;;;;5.40;4.97;;;;;;;29.07;43.10;99128.81;5052971;28;20192;-69
2022/07/10 05:49:41;;;;;;;4.83;4.40;;;;;;;28.92;43.94;99131.25;5052634;28;20212;-69
2022/07/10 05:52:09;;;;;;;4.53;4.13;;;;;;;29.46;42.37;99125.00;5052393;28;20201;-70
2022/07/10 05:54:36;;;;;;;4.37;4.07;;;;;;;28.58;44.06;99132.06;5052228;28;20242;-70
2022/07/10 05:57:03;;;;;;;4.90;4.60;;;;;;;28.20;45.25;99120.13;5052714;28;20192;-71
2022/07/10 05:59:29;;;;;;;5.27;4.67;;;;;;;27.63;46.66;99120.44;5051466;28;20204;-71
2022/07/10 06:01:56;;;;;;;5.17;4.87;;;;;;;27.04;49.22;99115.50;5050005;28;20200;-71
2022/07/10 06:04:23;;;;;;;4.57;4.37;;;;;;;27.23;48.48;99127.03;5052049;28;20250;-72
2022/07/10 06:06:50;;;;;;;5.10;4.80;;;;;;;27.66;47.33;99122.56;5052111;28;20228;-72
2022/07/10 06:09:18;;;;;;;5.50;5.13;;;;;;;27.75;47.41;99123.38;5052417;28;20196;-71
2022/07/10 06:11:45;;;;;;;6.03;5.60;;;;;;;27.43;48.66;99124.56;5052194;28;20217;-71
2022/07/10 06:14:12;;;;;;;5.07;4.87;;;;;;;27.38;48.68;99129.34;5052328;28;20283;-72
2022/07/10 06:16:39;;;;;;;4.83;4.60;;;;;;;27.17;49.23;99128.25;5052663;28;20193;-71
2022/07/10 06:19:06;;;;;;;4.87;4.67;;;;;;;27.24;49.47;99123.19;5051839;28;20613;-71
2022/07/10 06:21:33;;;;;;;5.20;4.90;;;;;;;26.66;50.67;99098.72;5052161;28;20254;-71
2022/07/10 06:23:59;;;;;;;4.83;4.43;;;;;;;26.69;50.77;99119.09;5051953;28;20331;-71
2022/07/10 06:26:27;;;;;;;6.03;5.13;;;;;;;26.12;52.12;99117.97;5051844;28;20657;-71
2022/07/10 06:28:54;;;;;;;5.30;5.00;;;;;;;25.74;53.64;99085.84;5051546;28;20230;-72
2022/07/10 06:31:21;;;;;;;5.57;5.03;;;;;;;26.06;53.32;99108.31;5051734;28;20228;-71
2022/07/10 06:33:48;;;;;;;5.40;5.00;;;;;;;26.12;53.24;99111.69;5052073;28;20212;-70
2022/07/10 06:36:15;;;;;;;4.90;4.60;;;;;;;26.18;52.74;99110.50;5051808;28;20193;-70
2022/07/10 06:38:41;;;;;;;5.27;4.97;;;;;;;26.20;52.70;99116.41;5052049;28;20195;-70
2022/07/10 06:41:09;;;;;;;5.67;5.37;;;;;;;26.13;53.07;99116.06;5051406;28;20676;-70
2022/07/10 06:43:37;;;;;;;5.87;5.33;;;;;;;26.11;52.92;99099.22;5051490;28;20713;-70
2022/07/10 06:46:04;;;;;;;5.00;4.70;;;;;;;26.40;53.33;99114.06;5052011;28;20279;-70
2022/07/10 06:48:30;;;;;;;6.27;5.23;;;;;;;26.30;52.73;99113.47;5052368;28;20196;-70
2022/07/10 06:50:57;;;;;;;5.83;5.47;;;;;;;26.13;53.28;99114.13;5051944;28;20309;-71
2022/07/10 06:53:23;;;;;;;5.33;4.83;;;;;;;25.94;54.17;99112.66;5051914;28;20311;-72
2022/07/10 06:55:51;;;;;;;5.57;5.37;;;;;;;26.11;53.73;99110.09;5051987;28;20192;-71
2022/07/10 06:58:17;;;;;;;5.40;5.00;;;;;;;25.94;53.79;99104.50;5051617;28;20629;-72
2022/07/10 07:00:46;;;;;;;5.17;4.83;;;;;;;25.66;54.69;99120.00;5051469;28;20196;-71
2022/07/10 07:03:12;;;;;;;5.47;5.17;;;;;;;25.58;54.77;99098.13;5051541;28;20207;-71
2022/07/10 07:05:39;;;;;;;5.20;4.80;;;;;;;25.66;55.12;99119.19;5051372;28;20656;-72
2022/07/10 07:08:06;;;;;;;5.87;5.40;;;;;;;25.66;54.81;99103.69;5051674;28;20197;-72
2022/07/10 07:10:33;;;;;;;5.63;5.27;;;;;;;25.73;55.56;99111.44;5053001;28;20286;-71
2022/07/10 07:13:02;;;;;;;4.90;4.60;;;;;;;25.94;54.71;99118.09;5055375;28;20202;-70
2022/07/10 07:15:29;;;;;;;5.40;5.17;;;;;;;26.17;54.46;99108.88;5056254;28;20574;-70
2022/07/10 07:18:07;;;;;;;5.13;4.73;;;;;;;26.82;52.61;99104.63;5055570;28;20196;-69
2022/07/10 07:23:19;;;;;;;5.20;4.50;;;;;;;28.30;47.51;99113.56;5055486;28;20319;-70
2022/07/10 07:25:47;;;;;;;5.63;5.23;;;;;;;28.08;48.24;99105.50;5055649;28;20250;-70
2022/07/10 07:28:17;;;;;;;5.70;5.33;;;;;;;27.97;48.76;99105.00;5055664;28;20197;-71
2022/07/10 07:30:44;;;;;;;5.03;4.83;;;;;;;27.59;50.16;99109.38;5054982;28;20607;-70
2022/07/10 07:33:12;;;;;;;5.17;4.97;;;;;;;27.51;50.38;99106.59;5055237;28;20197;-70
2022/07/10 07:35:39;;;;;;;5.33;5.03;;;;;;;27.35;50.49;99106.22;5055268;28;20196;-70
2022/07/10 07:38:06;;;;;;;5.17;4.97;;;;;;;27.35;51.71;99105.41;5054905;28;20610;-71
2022/07/10 07:40:34;;;;;;;5.93;5.20;;;;;;;27.65;51.59;99099.13;5054544;28;20192;-70
2022/07/10 07:43:01;;;;;;;5.07;4.87;;;;;;;27.65;50.13;99107.31;5055023;28;20228;-70
2022/07/10 07:45:28;;;;;;;5.47;5.07;;;;;;;27.68;49.69;99106.69;5054683;28;20203;-71
2022/07/10 07:47:56;;;;;;;5.40;4.90;;;;;;;27.91;49.29;99110.94;5055043;28;20196;-71
2022/07/10 07:50:26;;;;;;;5.37;5.07;;;;;;;27.75;48.75;99096.88;5055323;28;20201;-71
2022/07/10 07:52:54;;;;;;;5.73;5.23;;;;;;;27.58;50.39;99104.22;5053957;28;20277;-71
2022/07/10 07:55:21;;;;;;;5.90;5.27;;;;;;;27.67;49.47;99107.78;5054580;28;20196;-71
2022/07/10 07:57:49;;;;;;;5.37;5.17;;;;;;;27.73;49.58;99106.53;5054798;28;20204;-71
2022/07/10 08:00:17;;;;;;;5.23;4.93;;;;;;;27.88;48.51;99098.72;5054507;28;20300;-71
2022/07/10 08:02:44;;;;;;;5.37;4.90;;;;;;;28.28;48.04;99104.88;5054774;28;20258;-71
2022/07/10 08:05:11;;;;;;;5.23;5.03;;;;;;;28.44;47.11;99103.28;5054596;28;20193;-70
2022/07/10 08:07:40;;;;;;;5.03;4.80;;;;;;;28.67;46.85;99115.69;5054614;28;20620;-70
2022/07/10 08:10:10;;;;;;;4.93;4.73;;;;;;;28.72;46.95;99110.84;5054417;28;20210;-71
2022/07/10 08:12:38;;;;;;;5.60;5.30;;;;;;;28.84;46.84;99112.91;5054460;28;20416;-71
2022/07/10 08:15:07;;;;;;;5.47;5.17;;;;;;;28.68;47.09;99114.53;5054635;28;20193;-71
2022/07/10 08:17:34;;;;;;;5.03;4.73;;;;;;;28.71;47.19;99108.44;5054306;28;20229;-71
2022/07/10 08:20:00;;;;;;;5.90;5.27;;;;;;;28.83;46.96;99108.59;5053913;28;20192;-72
2022/07/10 08:22:27;;;;;;;6.10;5.60;;;;;;;28.76;46.92;99111.00;5053676;28;20230;-71
2022/07/10 08:24:56;;;;;;;5.17;4.90;;;;;;;28.72;46.06;99118.25;5054641;28;20195;-71
2022/07/10 08:27:23;;;;;;;5.13;4.87;;;;;;;28.75;46.29;99109.41;5053941;28;20224;-71
2022/07/10 08:29:49;;;;;;;5.73;5.50;;;;;;;28.94;45.10;99120.78;5053976;28;20200;-70
2022/07/10 08:32:16;;;;;;;8.43;7.87;;;;;;;28.88;46.12;99113.88;5054303;28;20281;-71
2022/07/10 08:34:43;;;;;;;6.13;5.73;;;;;;;29.16;44.83;99112.41;5053893;28;20188;-71
2022/07/10 08:37:10;;;;;;;6.77;6.37;;;;;;;28.88;44.99;99120.13;5054310;28;20266;-71
2022/07/10 08:39:37;;;;;;;5.20;5.00;;;;;;;29.00;44.68;99116.78;5053434;28;20196;-71
2022/07/10 08:42:07;;;;;;;5.63;5.17;;;;;;;28.89;45.70;99120.94;5053650;28;20314;-71
2022/07/10 08:44:35;;;;;;;6.00;5.47;;;;;;;29.08;44.76;99121.44;5053669;28;20189;-71
2022/07/10 08:47:03;;;;;;;5.10;4.80;;;;;;;29.13;44.77;99115.78;5053574;28;20196;-71
2022/07/10 08:49:31;;;;;;;5.00;4.60;;;;;;;29.51;45.18;99122.06;5053433;28;20227;-71
2022/07/10 08:52:00;;;;;;;5.87;5.57;;;;;;;29.67;45.09;99125.91;5054609;28;20217;-70
2022/07/10 08:54:29;;;;;;;6.07;5.77;;;;;;;30.14;44.14;99123.88;5053347;28;20239;-70
2022/07/10 08:56:58;;;;;;;7.90;7.40;;;;;;;30.30;42.40;99133.13;5053529;28;20228;-70
2022/07/10 08:59:27;;;;;;;6.47;6.07;;;;;;;30.40;42.45;99139.00;5052569;28;20240;-70
2022/07/10 09:01:54;;;;;;;9.50;5.63;;;;;;;30.59;42.42;99135.81;5053359;28;20253;-70
2022/07/10 09:04:22;;;;;;;7.73;7.20;;;;;;;30.14;42.00;99140.34;5053256;28;20284;-71
2022/07/10 09:06:49;;;;;;;5.33;5.00;;;;;;;30.25;42.25;99131.38;5053480;28;20193;-70
2022/07/10 09:09:16;;;;;;;5.27;4.77;;;;;;;30.59;40.60;99146.78;5053503;28;20574;-71
2022/07/10 09:11:43;;;;;;;4.50;4.30;;;;;;;30.97;39.99;99140.00;5053096;28;20287;-70
2022/07/10 09:14:11;;;;;;;5.10;4.70;;;;;;;31.27;39.07;99135.19;5053400;28;20201;-70
2022/07/10 09:16:41;;;;;;;4.73;4.43;;;;;;;31.45;39.41;99142.91;5054417;28;20193;-70
2022/07/10 09:19:20;;;;;;;4.87;4.47;;;;;;;30.95;39.76;99145.00;5054230;28;20195;-70
2022/07/10 09:21:48;;;;;;;5.37;4.87;;;;;;;30.72;40.70;99137.47;5053463;28;20279;-70
2022/07/10 09:24:19;;;;;;;5.87;5.23;;;;;;;30.40;41.59;99139.00;5053841;28;20196;-71
2022/07/10 09:26:58;;;;;;;5.33;4.97;;;;;;;30.46;39.79;99147.84;5053197;28;20641;-70
2022/07/10 09:29:25;;;;;;;5.40;5.00;;;;;;;30.03;40.98;99145.38;5053533;28;20268;-71
2022/07/10 09:31:55;;;;;;;6.40;5.17;;;;;;;30.23;41.54;99138.34;5052887;28;20216;-70
2022/07/10 09:34:37;;;;;;;5.37;5.07;;;;;;;30.16;42.29;99146.28;5052218;28;20188;-71
2022/07/10 09:37:20;;;;;;;7.23;5.60;;;;;;;30.30;43.13;99138.59;5052685;28;20715;-71
2022/07/10 09:39:55;;;;;;;5.53;5.03;;;;;;;30.39;42.55;99142.91;5052783;28;20276;-70
2022/07/10 09:42:31;;;;;;;5.40;5.00;;;;;;;30.47;42.62;99143.97;5053182;28;20227;-71
2022/07/10 09:45:19;;;;;;;5.40;5.13;;;;;;;30.49;41.59;99147.97;5053050;28;20258;-71
2022/07/10 09:47:56;;;;;;;5.07;4.73;;;;;;;30.49;41.36;99141.69;5052441;28;20672;-70
2022/07/10 09:50:25;;;;;;;5.47;5.27;;;;;;;30.34;41.35;99142.28;5052873;28;20188;-71
2022/07/10 09:52:54;;;;;;;5.80;5.50;;;;;;;29.95;42.44;99142.66;5052257;28;20263;-71
2022/07/10 09:55:22;;;;;;;6.87;5.37;;;;;;;29.92;43.33;99138.66;5052302;28;20200;-71
2022/07/10 09:57:56;;;;;;;5.60;5.00;;;;;;;30.00;42.76;99139.75;5052732;28;20250;-71
2022/07/10 10:00:28;;;;;;;8.63;5.47;;;;;;;30.02;43.32;99143.75;5052426;28;20276;-71
2022/07/10 10:02:58;;;;;;;5.90;5.40;;;;;;;30.01;42.79;99141.34;5052281;28;20322;-71
2022/07/10 10:05:34;;;;;;;4.87;4.60;;;;;;;30.03;42.59;99139.88;5052207;28;20637;-70
2022/07/10 10:08:05;;;;;;;6.00;5.50;;;;;;;30.03;42.84;99134.41;5052383;28;20192;-70
2022/07/10 10:10:36;;;;;;;5.57;5.17;;;;;;;29.98;43.62;99134.59;5051966;28;20567;-71
2022/07/10 10:13:10;;;;;;;5.17;4.97;;;;;;;29.64;43.01;99132.03;5051965;28;20270;-70
2022/07/10 10:15:37;;;;;;;5.67;5.10;;;;;;;29.62;43.01;99128.81;5052039;28;20668;-70
2022/07/10 10:18:07;;;;;;;5.17;4.77;;;;;;;29.60;42.92;99130.28;5052385;28;20278;-70
2022/07/10 10:20:41;;;;;;;5.57;5.20;;;;;;;29.70;43.03;99128.00;5052268;28;20279;-70
2022/07/10 10:23:12;;;;;;;5.20;5.00;;;;;;;29.85;43.16;99124.69;5052453;28;20192;-70
2022/07/10 10:25:39;;;;;;;5.10;4.80;;;;;;;29.53;43.40;99124.50;5052790;28;20277;-71
2022/07/10 10:28:08;;;;;;;4.80;4.60;;;;;;;29.69;43.45;99123.66;5052573;28;20197;-70
2022/07/10 10:30:38;;;;;;;6.17;5.03;;;;;;;30.02;43.64;99126.50;5051734;28;20201;-70
2022/07/10 10:33:51;;;;;;;5.13;4.73;;;;;;;30.16;42.45;99119.69;5051738;28;20718;-70
2022/07/10 10:36:50;;;;;;;4.90;4.70;;;;;;;30.39;41.42;99125.63;5051755;28;20195;-70
2022/07/10 10:39:18;;;;;;;5.47;5.00;;;;;;;30.53;41.66;99116.00;5048396;28;20196;-71
2022/07/10 10:41:52;;;;;;;5.63;5.23;;;;;;;30.51;41.10;99112.00;5052045;28;20228;-70
2022/07/10 10:44:23;;;;;;;4.67;4.40;;;;;;;30.59;40.43;99116.59;5051582;28;20650;-70
2022/07/10 10:47:05;;;;;;;4.93;4.63;;;;;;;30.62;39.83;99111.25;5051481;28;20655;-70
2022/07/10 10:49:59;;;;;;;5.03;4.73;;;;;;;30.90;39.97;99103.28;5052034;28;20188;-70
2022/07/10 10:52:26;;;;;;;5.03;4.83;;;;;;;30.57;40.35;99096.94;5041866;28;20731;-70
2022/07/10 10:55:08;;;;;;;5.00;4.60;;;;;;;30.65;39.93;99105.09;5051891;28;20196;-71
2022/07/10 10:57:47;;;;;;;5.47;4.90;;;;;;;30.61;38.97;99106.91;5051177;28;20192;-71
2022/07/10 11:00:37;;;;;;;7.87;4.83;;;;;;;30.64;38.00;99108.97;5051806;28;21066;-71
2022/07/10 11:03:27;;;;;;;4.47;4.27;;;;;;;30.77;38.96;99093.38;5051905;28;20189;-71
2022/07/10 11:05:55;;;;;;;5.10;4.90;;;;;;;30.83;39.14;99092.84;5041962;28;20200;-71
2022/07/10 11:08:40;;;;;;;4.80;4.60;;;;;;;30.86;37.43;99097.66;5051419;28;20288;-69
2022/07/10 11:11:39;;;;;;;4.33;4.23;;;;;;;30.75;36.87;99091.00;5051896;28;20196;-70
2022/07/10 11:14:07;;;;;;;4.00;3.80;;;;;;;30.80;36.19;99089.97;5052262;28;20276;-69
2022/07/10 11:16:34;;;;;;;3.67;3.53;;;;;;;30.71;35.37;99083.78;5051290;28;20204;-69
2022/07/10 11:19:02;;;;;;;4.37;4.17;;;;;;;30.71;35.68;99070.06;5051552;28;20643;-70
2022/07/10 11:21:50;;;;;;;4.17;4.00;;;;;;;30.76;35.63;99070.66;5051139;28;20284;-69
2022/07/10 11:24:35;;;;;;;4.43;4.10;;;;;;;30.55;37.59;99069.88;5051365;28;20185;-70
2022/07/10 11:27:16;;;;;;;4.17;3.97;;;;;;;30.50;37.50;99070.06;5051130;28;20714;-71
2022/07/10 11:29:47;;;;;;;4.30;4.00;;;;;;;30.71;36.97;99059.09;5051168;28;20238;-70
2022/07/10 11:32:17;;;;;;;3.53;3.43;;;;;;;30.99;36.82;99062.84;5050945;28;20304;-70
2022/07/10 11:34:44;;;;;;;3.93;3.67;;;;;;;31.05;36.76;99061.47;5051038;28;20189;-70
2022/07/10 11:37:16;;;;;;;4.20;3.90;;;;;;;30.96;36.64;99069.00;5051111;28;20250;-70
2022/07/10 11:39:43;;;;;;;3.93;3.73;;;;;;;31.15;35.23;99061.81;5052315;28;20181;-70
2022/07/10 11:42:10;;;;;;;3.00;2.90;;;;;;;31.39;34.14;99061.88;5051609;28;20630;-70
2022/07/10 11:44:36;;;;;;;3.53;3.43;;;;;;;31.33;34.01;99052.28;5051227;28;20661;-70
2022/07/10 11:47:06;;;;;;;3.87;3.57;;;;;;;31.42;34.09;99052.97;5050872;28;20197;-70
2022/07/10 11:49:35;;;;;;;4.23;3.93;;;;;;;31.33;34.46;99046.78;5052207;28;20270;-70